Time;durP1;ratioP1;P1;durP2;ratioP2;P2;SDS_P1;SDS_P2;PMS_P1;PMS_P2;Temp;Humidity;BMP_temperature;BMP_pressure;BME280_temperature;BME280_humidity;BME280_pressure;Samples;Min_cycle;Max_cycle;Signal;HPM_P1;HPM_P2
2023/08/06 00:00:52;;;;;;;1.75;0.57;;;;;;;25.16;50.19;97859.50;2090034;28;20091;-53
2023/08/06 00:01:54;;;;;;;0.88;0.40;;;;;;;25.15;50.87;97855.13;2090534;28;20189;-51
2023/08/06 00:02:55;;;;;;;1.42;0.75;;;;;;;25.17;49.98;97858.41;2093605;28;20097;-54
2023/08/06 00:03:59;;;;;;;0.40;0.20;;;;;;;25.18;50.27;97853.78;2089179;28;20405;-49
2023/08/06 00:04:59;;;;;;;0.43;0.38;;;;;;;25.18;50.45;97856.50;2085926;28;20045;-52
2023/08/06 00:06:03;;;;;;;1.30;0.30;;;;;;;25.18;50.47;97860.06;2089967;28;20050;-54
2023/08/06 00:07:04;;;;;;;1.50;0.70;;;;;;;25.19;50.54;97856.25;2088850;28;20048;-51
2023/08/06 00:08:06;;;;;;;0.93;0.20;;;;;;;25.19;50.21;97848.09;2088435;28;20112;-51
2023/08/06 00:09:08;;;;;;;0.93;0.35;;;;;;;25.19;50.91;97848.09;2088995;28;20052;-52
2023/08/06 00:10:10;;;;;;;0.68;0.65;;;;;;;25.19;50.72;97850.00;2089029;28;20135;-51
2023/08/06 00:11:12;;;;;;;0.40;0.32;;;;;;;25.19;50.46;97850.00;2087794;28;20052;-53
2023/08/06 00:12:14;;;;;;;0.77;0.52;;;;;;;25.18;50.52;97843.78;2088047;28;20049;-53
2023/08/06 00:13:15;;;;;;;0.65;0.52;;;;;;;25.18;50.37;97851.06;2087583;28;20052;-50
2023/08/06 00:14:17;;;;;;;1.92;0.63;;;;;;;25.18;50.62;97849.19;2090487;28;20140;-52
2023/08/06 00:15:18;;;;;;;1.33;0.60;;;;;;;25.22;50.37;97851.38;2088457;28;20050;-52
2023/08/06 00:16:20;;;;;;;0.20;0.20;;;;;;;25.21;50.80;97839.69;2089331;28;20078;-51
2023/08/06 00:17:21;;;;;;;3.20;0.63;;;;;;;25.19;50.40;97853.53;2090714;28;20045;-52
2023/08/06 00:18:23;;;;;;;1.42;0.30;;;;;;;25.22;50.35;97852.19;2090185;28;22745;-53
2023/08/06 00:19:24;;;;;;;1.27;0.40;;;;;;;25.22;50.77;97851.38;2088349;28;20045;-49
2023/08/06 00:20:25;;;;;;;1.10;0.50;;;;;;;25.21;50.81;97855.16;2091192;28;20465;-57
2023/08/06 00:21:27;;;;;;;0.90;0.30;;;;;;;25.20;50.60;97857.06;2086362;28;20083;-52
2023/08/06 00:22:29;;;;;;;0.63;0.47;;;;;;;25.19;50.38;97853.53;2085631;28;20423;-51
2023/08/06 00:23:30;;;;;;;0.30;0.30;;;;;;;25.19;50.56;97853.53;2086292;28;20613;-58
2023/08/06 00:24:32;;;;;;;0.85;0.50;;;;;;;25.19;50.86;97852.72;2087949;28;20059;-53
2023/08/06 00:25:33;;;;;;;0.80;0.60;;;;;;;25.19;49.99;97853.53;2089186;28;20076;-48
2023/08/06 00:26:35;;;;;;;0.43;0.38;;;;;;;25.18;50.42;97857.34;2090040;28;20045;-54
2023/08/06 00:27:36;;;;;;;1.15;0.30;;;;;;;25.19;50.58;97847.31;2086254;28;20048;-54
2023/08/06 00:28:38;;;;;;;0.65;0.57;;;;;;;25.19;50.17;97847.31;2088569;28;20102;-55
2023/08/06 00:29:39;;;;;;;0.70;0.40;;;;;;;25.18;50.80;97848.38;2089990;28;20064;-54
2023/08/06 00:30:40;;;;;;;1.60;0.40;;;;;;;25.19;50.73;97845.41;2088186;28;20055;-52
2023/08/06 00:31:41;;;;;;;0.73;0.40;;;;;;;25.20;50.42;97846.19;2087835;28;20422;-55
2023/08/06 00:32:44;;;;;;;1.65;0.40;;;;;;;25.18;50.56;97843.78;2086363;28;20049;-57
2023/08/06 00:33:45;;;;;;;0.88;0.60;;;;;;;25.18;50.68;97845.66;2087420;28;20048;-54
2023/08/06 00:34:49;;;;;;;0.88;0.50;;;;;;;25.21;50.91;97849.72;2086115;28;20041;-57
2023/08/06 00:35:50;;;;;;;1.30;0.40;;;;;;;25.18;50.31;97851.06;2086578;28;20043;-57
2023/08/06 00:36:53;;;;;;;0.75;0.55;;;;;;;25.21;50.20;97841.59;2088533;28;20136;-53
2023/08/06 00:37:54;;;;;;;0.80;0.50;;;;;;;25.19;50.54;97842.69;2087856;28;20452;-51
2023/08/06 00:38:56;;;;;;;0.68;0.50;;;;;;;25.21;50.04;97847.00;2085927;28;20049;-52
2023/08/06 00:39:57;;;;;;;1.65;0.50;;;;;;;25.19;50.45;97848.09;2088200;28;20562;-52
2023/08/06 00:40:59;;;;;;;1.33;0.50;;;;;;;25.21;50.28;97847.00;2087245;28;20071;-48
2023/08/06 00:42:00;;;;;;;1.65;0.77;;;;;;;25.22;50.61;97845.94;2089405;28;20099;-48
2023/08/06 00:43:02;;;;;;;2.67;0.68;;;;;;;25.21;50.55;97850.53;2087660;28;20045;-52
2023/08/06 00:44:03;;;;;;;0.47;0.43;;;;;;;25.22;50.59;97852.19;2086138;28;20071;-56
2023/08/06 00:45:06;;;;;;;0.98;0.40;;;;;;;25.23;50.65;97855.72;2083545;28;20052;-57
2023/08/06 00:46:07;;;;;;;6.03;0.77;;;;;;;25.20;50.15;97848.91;2087895;28;20049;-53
2023/08/06 00:47:09;;;;;;;3.95;0.40;;;;;;;25.23;50.56;97853.00;2087861;28;20072;-49
2023/08/06 00:48:10;;;;;;;1.48;0.40;;;;;;;25.22;50.49;97846.75;2084312;28;20467;-54
2023/08/06 00:49:12;;;;;;;4.28;0.60;;;;;;;25.22;50.79;97852.19;2088729;28;20048;-56
2023/08/06 00:50:13;;;;;;;2.00;0.32;;;;;;;25.22;49.82;97851.38;2088675;28;20083;-57
2023/08/06 00:51:16;;;;;;;0.85;0.45;;;;;;;25.23;50.12;97853.00;2087426;28;20118;-49
2023/08/06 00:52:19;;;;;;;0.85;0.45;;;;;;;25.23;50.57;97853.81;2088975;28;20051;-58
2023/08/06 00:53:20;;;;;;;0.70;0.30;;;;;;;25.24;50.81;97849.19;2087092;28;20055;-56
2023/08/06 00:54:22;;;;;;;1.83;0.30;;;;;;;25.24;50.80;97849.19;2085862;28;20047;-54
2023/08/06 00:55:24;;;;;;;1.92;0.30;;;;;;;25.24;50.12;97843.78;2086819;28;20048;-54
2023/08/06 00:56:25;;;;;;;1.67;0.40;;;;;;;25.24;50.65;97841.91;2088335;28;20049;-58
2023/08/06 00:57:27;;;;;;;0.75;0.40;;;;;;;25.25;50.28;97845.41;2087688;28;20048;-54
2023/08/06 00:58:29;;;;;;;0.57;0.47;;;;;;;25.24;50.18;97838.34;2088295;28;20072;-56
2023/08/06 00:59:32;;;;;;;1.83;0.50;;;;;;;25.24;50.32;97843.78;2089169;28;20105;-58
2023/08/06 01:00:32;;;;;;;2.25;0.50;;;;;;;25.25;50.06;97838.09;2085103;28;20052;-52
2023/08/06 01:01:33;;;;;;;1.17;1.05;;;;;;;25.24;50.48;97832.91;2083384;28;20147;-52
2023/08/06 01:02:35;;;;;;;1.13;0.40;;;;;;;25.25;50.05;97835.38;2087840;28;20048;-52
2023/08/06 01:03:36;;;;;;;0.90;0.45;;;;;;;25.25;50.26;97831.84;2087527;28;20053;-55
2023/08/06 01:04:38;;;;;;;0.82;0.60;;;;;;;25.24;50.06;97836.47;2087447;28;20056;-52
2023/08/06 01:05:39;;;;;;;1.20;0.63;;;;;;;25.24;50.33;97833.75;2088656;28;20044;-54
2023/08/06 01:06:48;;;;;;;0.73;0.40;;;;;;;25.24;49.92;97833.75;2086969;28;20133;-54
2023/08/06 01:08:08;;;;;;;1.17;0.40;;;;;;;25.22;50.53;97832.38;2086491;28;20064;-58
2023/08/06 01:09:20;;;;;;;0.80;0.47;;;;;;;25.22;49.99;97841.34;2088636;28;20061;-51
2023/08/06 01:10:38;;;;;;;1.88;0.50;;;;;;;25.22;50.24;97835.09;2084470;28;20048;-58
2023/08/06 01:11:55;;;;;;;1.02;0.63;;;;;;;25.19;50.02;97833.72;2087066;28;20125;-50
2023/08/06 01:13:08;;;;;;;1.58;0.60;;;;;;;25.19;49.98;97837.25;2086335;28;20331;-56
2023/08/06 01:14:20;;;;;;;2.22;0.65;;;;;;;25.19;49.91;97848.09;2088772;28;20060;-54
2023/08/06 01:15:25;;;;;;;1.23;0.50;;;;;;;25.21;49.68;97847.00;2086956;28;20078;-54
2023/08/06 01:16:27;;;;;;;2.97;0.75;;;;;;;25.22;49.44;97845.94;2085241;28;20055;-48
2023/08/06 01:17:30;;;;;;;2.15;0.47;;;;;;;25.22;50.16;97845.94;2086694;28;20211;-53
2023/08/06 01:18:32;;;;;;;2.63;0.30;;;;;;;25.24;50.35;97843.78;2085947;28;20056;-50
2023/08/06 01:19:33;;;;;;;1.20;0.43;;;;;;;25.24;50.14;97843.78;2086408;28;20147;-52
2023/08/06 01:20:36;;;;;;;1.13;0.65;;;;;;;25.23;49.83;97834.81;2087024;28;20511;-52
2023/08/06 01:21:37;;;;;;;2.13;1.00;;;;;;;25.24;50.23;97832.91;2088416;28;20246;-56
2023/08/06 01:22:39;;;;;;;1.85;0.60;;;;;;;25.23;49.62;97836.72;2087387;28;20495;-52
2023/08/06 01:23:41;;;;;;;0.88;0.45;;;;;;;25.22;49.81;97841.34;2088865;28;20132;-54
2023/08/06 01:24:48;;;;;;;1.77;0.63;;;;;;;25.21;49.88;97844.31;2083317;28;20048;-57
2023/08/06 01:25:56;;;;;;;1.23;0.50;;;;;;;25.18;49.49;97838.34;2086608;28;20076;-56
2023/08/06 01:27:04;;;;;;;0.43;0.40;;;;;;;25.18;49.45;97830.22;2086473;28;20040;-55
2023/08/06 01:28:15;;;;;;;1.20;0.70;;;;;;;25.18;49.63;97826.66;2087060;28;20049;-55
2023/08/06 01:29:26;;;;;;;1.63;0.70;;;;;;;25.14;49.23;97823.66;2084918;28;20048;-53
2023/08/06 01:30:30;;;;;;;0.40;0.30;;;;;;;25.15;49.70;97822.56;2086024;28;20056;-56
2023/08/06 01:31:36;;;;;;;0.82;0.40;;;;;;;25.14;49.61;97818.25;2087743;28;20087;-55
2023/08/06 01:32:42;;;;;;;1.75;0.55;;;;;;;25.16;49.57;97821.50;2084988;28;20059;-51
2023/08/06 01:33:48;;;;;;;0.82;0.47;;;;;;;25.15;49.20;97819.03;2086924;28;20678;-52
2023/08/06 01:34:50;;;;;;;0.93;0.30;;;;;;;25.16;49.71;97817.97;2085055;28;20981;-53
2023/08/06 01:35:56;;;;;;;1.88;0.32;;;;;;;25.17;49.68;97817.69;2086044;28;20051;-49
2023/08/06 01:36:57;;;;;;;0.32;0.32;;;;;;;25.16;49.44;97804.41;2086274;28;20507;-49
2023/08/06 01:38:01;;;;;;;2.28;0.85;;;;;;;25.15;49.39;97809.00;2081698;28;21335;-50
2023/08/06 01:39:02;;;;;;;1.52;0.50;;;;;;;25.15;49.55;97798.16;2084910;28;20056;-54
2023/08/06 01:40:07;;;;;;;0.90;0.45;;;;;;;25.16;49.24;97802.50;2085138;28;20776;-53
2023/08/06 01:41:08;;;;;;;0.82;0.50;;;;;;;25.17;49.25;97800.59;2085393;28;20482;-54
2023/08/06 01:42:10;;;;;;;0.52;0.30;;;;;;;25.16;49.36;97804.41;2088329;28;20040;-54
2023/08/06 01:43:11;;;;;;;1.65;1.30;;;;;;;25.15;49.39;97803.56;2085582;28;20455;-52
2023/08/06 01:44:11;;;;;;;1.75;0.38;;;;;;;25.16;49.21;97804.41;2085823;28;20060;-53
2023/08/06 01:45:14;;;;;;;1.63;0.40;;;;;;;25.14;49.71;97807.38;2086638;28;20098;-54
2023/08/06 01:46:14;;;;;;;1.58;0.50;;;;;;;25.12;49.84;97814.94;2084296;28;20048;-55
2023/08/06 01:47:15;;;;;;;0.65;0.50;;;;;;;25.13;49.23;97811.16;2084899;28;20360;-56
2023/08/06 01:48:17;;;;;;;0.65;0.40;;;;;;;25.16;49.62;97815.28;2085546;28;20044;-52
2023/08/06 01:49:18;;;;;;;1.67;0.60;;;;;;;25.15;49.65;97808.19;2083149;28;20501;-56
2023/08/06 01:50:20;;;;;;;1.08;0.60;;;;;;;25.16;49.33;97809.84;2087429;28;20049;-54
2023/08/06 01:51:22;;;;;;;2.13;0.70;;;;;;;25.17;49.24;97809.56;2085785;28;20072;-52
2023/08/06 01:52:24;;;;;;;3.63;0.75;;;;;;;25.16;49.71;97818.78;2087860;28;20496;-53
2023/08/06 01:53:25;;;;;;;0.75;0.35;;;;;;;25.14;49.64;97817.41;2087723;28;20083;-55
2023/08/06 01:54:27;;;;;;;0.35;0.30;;;;;;;25.17;50.17;97820.41;2087082;28;20127;-56
2023/08/06 01:55:29;;;;;;;0.82;0.40;;;;;;;25.18;49.45;97813.91;2086823;28;20061;-51
2023/08/06 01:56:31;;;;;;;0.40;0.30;;;;;;;25.17;49.65;97806.84;2087715;28;20063;-49
2023/08/06 01:57:32;;;;;;;5.38;0.85;;;;;;;25.19;49.06;97801.97;2084179;28;20490;-51
2023/08/06 01:58:34;;;;;;;0.75;0.47;;;;;;;25.18;49.76;97805.78;2085339;28;20052;-58
2023/08/06 01:59:34;;;;;;;0.50;0.40;;;;;;;25.16;49.92;97805.22;2084277;28;20462;-55
2023/08/06 02:00:36;;;;;;;0.95;0.70;;;;;;;25.17;49.29;97806.03;2086634;28;20582;-53
2023/08/06 02:01:37;;;;;;;0.68;0.40;;;;;;;25.16;49.47;97804.41;2086401;28;20044;-55
2023/08/06 02:02:40;;;;;;;3.78;1.42;;;;;;;25.16;49.66;97809.84;2084700;28;20175;-52
2023/08/06 02:03:41;;;;;;;2.35;0.50;;;;;;;25.16;49.56;97805.22;2084511;28;20048;-54
2023/08/06 02:04:43;;;;;;;1.05;0.50;;;;;;;25.14;49.91;97812.81;2085812;28;20052;-54
2023/08/06 02:05:45;;;;;;;1.85;0.80;;;;;;;25.16;49.57;97804.41;2086468;28;20506;-53
2023/08/06 02:06:48;;;;;;;0.95;0.60;;;;;;;25.14;50.00;97806.53;2083100;28;20429;-49
2023/08/06 02:07:49;;;;;;;3.22;0.50;;;;;;;25.12;49.57;97809.50;2086117;28;20052;-50
2023/08/06 02:08:51;;;;;;;0.82;0.40;;;;;;;25.15;49.96;97808.19;2087217;28;20048;-53
2023/08/06 02:09:52;;;;;;;2.75;0.52;;;;;;;25.15;49.27;97802.75;2085833;28;20222;-54
2023/08/06 02:10:54;;;;;;;5.00;0.65;;;;;;;25.12;49.98;97803.28;2085552;28;20634;-55
2023/08/06 02:11:55;;;;;;;2.08;0.50;;;;;;;25.13;49.64;97805.72;2086520;28;20576;-56
2023/08/06 02:12:57;;;;;;;3.63;1.20;;;;;;;25.13;49.66;97807.59;2086146;28;20048;-49
2023/08/06 02:13:58;;;;;;;5.55;0.85;;;;;;;25.13;49.29;97804.88;2086843;28;20063;-55
2023/08/06 02:14:59;;;;;;;1.75;0.60;;;;;;;25.13;49.64;97808.44;2085062;28;20049;-49
2023/08/06 02:16:00;;;;;;;2.80;0.80;;;;;;;25.12;49.98;97814.13;2085539;28;20538;-55
2023/08/06 02:17:02;;;;;;;1.55;0.65;;;;;;;25.13;49.88;97815.75;2085546;28;20542;-48
2023/08/06 02:18:03;;;;;;;1.83;0.88;;;;;;;25.12;49.16;97809.50;2083747;28;20437;-55
2023/08/06 02:19:05;;;;;;;1.42;0.55;;;;;;;25.13;49.41;97813.03;2084520;28;20127;-49
2023/08/06 02:20:07;;;;;;;1.45;1.25;;;;;;;25.11;49.58;97802.47;2086826;28;20518;-54
2023/08/06 02:21:09;;;;;;;1.15;0.20;;;;;;;25.11;49.47;97797.03;2085843;28;20098;-55
2023/08/06 02:22:11;;;;;;;2.10;0.55;;;;;;;25.12;49.36;97793.22;2086508;28;20050;-54
2023/08/06 02:23:13;;;;;;;1.55;0.55;;;;;;;25.10;49.56;97792.69;2087317;28;20060;-54
2023/08/06 02:24:13;;;;;;;1.08;0.40;;;;;;;25.12;49.82;97798.66;2084122;28;20071;-55
2023/08/06 02:25:15;;;;;;;2.05;1.20;;;;;;;25.12;49.35;97793.22;2085310;28;20422;-54
2023/08/06 02:26:16;;;;;;;2.90;1.13;;;;;;;25.12;49.31;97795.13;2085979;28;20055;-54
2023/08/06 02:27:18;;;;;;;1.25;0.47;;;;;;;25.10;49.44;97790.00;2087582;28;20067;-52
2023/08/06 02:28:19;;;;;;;1.60;0.82;;;;;;;25.12;49.77;97792.41;2086009;28;20048;-54
2023/08/06 02:29:21;;;;;;;0.32;0.30;;;;;;;25.13;49.20;97794.03;2084846;28;20636;-48
2023/08/06 02:30:22;;;;;;;0.50;0.45;;;;;;;25.13;49.42;97794.03;2086351;28;20099;-55
2023/08/06 02:31:23;;;;;;;0.75;0.60;;;;;;;25.12;49.12;97795.13;2086776;28;20123;-56
2023/08/06 02:32:24;;;;;;;1.50;0.40;;;;;;;25.13;48.77;97789.44;2086169;28;20429;-58
2023/08/06 02:33:25;;;;;;;3.70;0.73;;;;;;;25.12;49.41;97787.78;2084091;28;20048;-54
2023/08/06 02:34:27;;;;;;;1.45;0.85;;;;;;;25.13;49.86;97794.88;2086988;28;20056;-52
2023/08/06 02:35:28;;;;;;;0.82;0.40;;;;;;;25.14;49.29;97795.69;2087052;28;20068;-51
2023/08/06 02:36:29;;;;;;;1.13;0.40;;;;;;;25.14;48.96;97796.53;2086187;28;20055;-54
2023/08/06 02:37:33;;;;;;;1.42;0.68;;;;;;;25.16;49.59;97799.00;2085268;28;20419;-55
2023/08/06 02:38:35;;;;;;;1.17;0.55;;;;;;;25.14;49.75;97793.81;2085497;28;20061;-51
2023/08/06 02:39:39;;;;;;;2.20;1.38;;;;;;;25.13;49.71;97789.44;2084182;28;20407;-52
2023/08/06 02:40:45;;;;;;;3.17;0.90;;;;;;;25.13;49.29;97788.59;2086015;28;20498;-55
2023/08/06 02:41:46;;;;;;;1.35;0.30;;;;;;;25.10;49.32;97784.56;2082817;28;20053;-48
2023/08/06 02:42:48;;;;;;;1.23;0.40;;;;;;;25.10;49.64;97787.28;2085654;28;20059;-51
2023/08/06 02:43:49;;;;;;;1.20;0.80;;;;;;;25.11;49.46;97779.94;2084556;28;20048;-53
2023/08/06 02:44:51;;;;;;;1.35;0.40;;;;;;;25.12;49.59;97782.38;2086583;28;20056;-53
2023/08/06 02:45:52;;;;;;;2.25;0.85;;;;;;;25.13;49.69;97784.03;2084927;28;20144;-51
2023/08/06 02:46:54;;;;;;;0.93;0.40;;;;;;;25.12;49.87;97787.78;2086573;28;20052;-49
2023/08/06 02:47:55;;;;;;;0.43;0.43;;;;;;;25.14;49.28;97787.53;2088550;28;20875;-56
2023/08/06 02:48:56;;;;;;;0.32;0.25;;;;;;;25.15;49.28;97786.47;2087879;28;20138;-52
2023/08/06 02:49:57;;;;;;;1.10;0.68;;;;;;;25.15;49.94;97792.72;2085441;28;20660;-53
2023/08/06 02:51:00;;;;;;;0.50;0.50;;;;;;;25.15;48.91;97792.72;2088051;28;20136;-55
2023/08/06 02:52:01;;;;;;;1.02;0.40;;;;;;;25.15;49.46;97787.28;2087031;28;20554;-52
2023/08/06 02:53:03;;;;;;;2.78;0.68;;;;;;;25.17;49.55;97790.56;2087889;28;20053;-54
2023/08/06 02:54:04;;;;;;;4.30;1.10;;;;;;;25.16;49.34;97788.94;2087623;28;20135;-49
2023/08/06 02:55:06;;;;;;;0.50;0.50;;;;;;;25.15;49.51;97778.34;2088475;28;20045;-55
2023/08/06 02:56:08;;;;;;;6.80;0.93;;;;;;;25.15;49.16;97787.28;2089286;28;20052;-54
2023/08/06 02:57:09;;;;;;;2.28;0.85;;;;;;;25.14;49.12;97784.84;2088066;28;20052;-54
2023/08/06 02:58:11;;;;;;;3.80;0.80;;;;;;;25.12;49.51;97779.66;2085064;28;20459;-53
2023/08/06 02:59:12;;;;;;;4.43;0.70;;;;;;;25.12;49.73;97782.38;2086392;28;20064;-56
2023/08/06 03:00:14;;;;;;;2.22;0.80;;;;;;;25.13;49.56;97777.75;2086937;28;20054;-51
2023/08/06 03:01:15;;;;;;;1.17;0.57;;;;;;;25.12;49.73;97776.94;2087443;28;20052;-51
2023/08/06 03:02:17;;;;;;;1.65;0.50;;;;;;;25.13;49.31;97773.16;2087138;28;20449;-55
2023/08/06 03:03:18;;;;;;;2.78;0.45;;;;;;;25.13;49.23;97773.16;2086934;28;20579;-54
2023/08/06 03:04:20;;;;;;;1.20;0.60;;;;;;;25.13;49.72;97773.16;2089229;28;20052;-51
2023/08/06 03:05:21;;;;;;;2.10;0.68;;;;;;;25.13;49.92;97777.75;2086017;28;24316;-54
2023/08/06 03:06:23;;;;;;;0.90;0.50;;;;;;;25.12;49.71;97776.13;2085473;28;20347;-57
2023/08/06 03:07:23;;;;;;;1.58;0.55;;;;;;;25.09;49.26;97774.78;2088876;28;20109;-54
2023/08/06 03:08:27;;;;;;;3.05;0.80;;;;;;;25.11;49.48;97778.03;2088261;28;20045;-58
2023/08/06 03:09:28;;;;;;;3.30;0.40;;;;;;;25.11;49.60;97775.31;2087062;28;20545;-56
2023/08/06 03:10:31;;;;;;;1.27;0.57;;;;;;;25.11;50.24;97772.63;2085237;28;20049;-57
2023/08/06 03:11:31;;;;;;;2.47;0.55;;;;;;;25.13;49.30;97773.16;2078945;28;20049;-53
2023/08/06 03:12:33;;;;;;;0.68;0.43;;;;;;;25.12;49.26;97768.81;2076759;28;20157;-52
2023/08/06 03:13:34;;;;;;;3.47;0.65;;;;;;;25.12;49.24;97776.94;2078902;28;20056;-57
2023/08/06 03:14:36;;;;;;;2.88;1.10;;;;;;;25.11;49.70;97779.94;2080228;28;20481;-52
2023/08/06 03:15:37;;;;;;;1.55;0.80;;;;;;;25.09;49.68;97777.47;2075277;28;20155;-54
2023/08/06 03:16:39;;;;;;;1.42;0.77;;;;;;;25.11;49.45;97774.50;2078597;28;20056;-54
2023/08/06 03:17:40;;;;;;;2.88;0.93;;;;;;;25.12;49.37;97776.94;2080325;28;20053;-55
2023/08/06 03:18:42;;;;;;;1.92;0.75;;;;;;;25.13;49.03;97772.31;2083612;28;20045;-57
2023/08/06 03:19:43;;;;;;;2.47;1.00;;;;;;;25.11;49.28;97774.50;2087751;28;20052;-59
2023/08/06 03:20:45;;;;;;;1.75;0.95;;;;;;;25.11;49.35;97777.22;2082028;28;20059;-58
2023/08/06 03:21:46;;;;;;;1.23;0.60;;;;;;;25.09;49.39;97777.47;2082233;28;20041;-51
2023/08/06 03:22:47;;;;;;;0.38;0.30;;;;;;;25.09;49.45;97776.66;2085305;28;20502;-54
2023/08/06 03:23:51;;;;;;;3.88;0.75;;;;;;;25.08;49.45;97775.06;2087061;28;20048;-53
2023/08/06 03:24:51;;;;;;;1.60;0.52;;;;;;;25.07;49.38;97779.63;2086737;28;20048;-52
2023/08/06 03:25:53;;;;;;;1.15;0.40;;;;;;;25.08;49.47;97773.16;2083594;28;20432;-55
2023/08/06 03:26:54;;;;;;;0.77;0.60;;;;;;;25.08;49.27;97772.34;2078749;28;20052;-54
2023/08/06 03:27:55;;;;;;;2.15;0.60;;;;;;;25.11;49.46;97774.50;2080168;28;20077;-53
2023/08/06 03:28:57;;;;;;;0.75;0.70;;;;;;;25.11;49.85;97774.50;2079179;28;20389;-54
2023/08/06 03:30:00;;;;;;;2.47;0.50;;;;;;;25.10;49.40;97778.28;2080776;28;20054;-50
2023/08/06 03:31:02;;;;;;;1.58;0.47;;;;;;;25.11;49.74;97782.66;2078242;28;20045;-52
2023/08/06 03:32:04;;;;;;;1.55;0.60;;;;;;;25.09;49.47;97777.47;2075085;28;20053;-53
2023/08/06 03:33:06;;;;;;;3.33;0.40;;;;;;;25.09;50.17;97773.97;2079636;28;20075;-51
2023/08/06 03:34:06;;;;;;;1.92;0.40;;;;;;;25.07;49.49;97774.22;2079850;28;20076;-57
2023/08/06 03:35:09;;;;;;;1.05;0.30;;;;;;;25.07;49.26;97779.63;2080641;28;20151;-53
2023/08/06 03:36:10;;;;;;;0.77;0.40;;;;;;;25.08;49.79;97775.06;2079385;28;20407;-52
2023/08/06 03:37:11;;;;;;;1.67;0.88;;;;;;;25.08;49.65;97775.88;2087352;28;21202;-50
2023/08/06 03:38:13;;;;;;;1.60;0.68;;;;;;;25.07;49.34;97779.63;2083767;28;20043;-51
2023/08/06 03:39:16;;;;;;;2.90;0.60;;;;;;;25.08;50.11;97775.88;2080182;28;20049;-49
2023/08/06 03:40:17;;;;;;;1.20;0.52;;;;;;;25.05;49.32;97768.25;2079038;28;20121;-49
2023/08/06 03:41:18;;;;;;;0.52;0.40;;;;;;;25.06;49.39;97780.72;2077588;28;20052;-57
2023/08/06 03:42:20;;;;;;;0.88;0.52;;;;;;;25.08;48.96;97784.00;2078376;28;20486;-54
2023/08/06 03:43:21;;;;;;;0.98;0.60;;;;;;;25.09;49.55;97777.47;2076904;28;20041;-55
2023/08/06 03:44:23;;;;;;;2.00;0.50;;;;;;;25.07;49.16;97779.63;2079221;28;20132;-50
2023/08/06 03:45:23;;;;;;;4.07;0.88;;;;;;;25.08;49.27;97775.06;2078079;28;20275;-53
2023/08/06 03:46:25;;;;;;;1.52;0.57;;;;;;;25.10;49.26;97784.56;2087130;28;20139;-57
2023/08/06 03:47:26;;;;;;;1.35;0.38;;;;;;;25.08;49.80;97780.47;2076428;28;20330;-53
2023/08/06 03:48:28;;;;;;;1.30;0.55;;;;;;;25.07;49.97;97782.34;2085359;28;20053;-51
2023/08/06 03:49:29;;;;;;;2.03;0.52;;;;;;;25.09;49.11;97784.81;2087649;28;20304;-50
2023/08/06 03:50:31;;;;;;;4.47;1.05;;;;;;;25.10;49.00;97789.16;2085774;28;20064;-52
2023/08/06 03:51:31;;;;;;;0.93;0.40;;;;;;;25.11;49.67;97790.78;2084262;28;20060;-56
2023/08/06 03:52:32;;;;;;;0.77;0.75;;;;;;;25.10;49.82;97787.28;2085619;28;20059;-50
2023/08/06 03:53:34;;;;;;;0.50;0.28;;;;;;;25.10;49.78;97786.44;2087023;28;20048;-56
2023/08/06 03:54:36;;;;;;;0.82;0.50;;;;;;;25.12;49.99;97793.22;2087095;28;20063;-51
2023/08/06 03:55:37;;;;;;;1.55;0.88;;;;;;;25.14;49.48;97785.66;2087157;28;20056;-53
2023/08/06 03:56:39;;;;;;;2.30;0.40;;;;;;;25.13;49.21;97786.75;2086466;28;20437;-55
2023/08/06 03:57:40;;;;;;;1.17;0.40;;;;;;;25.11;49.74;97780.75;2084905;28;20059;-52
2023/08/06 03:58:42;;;;;;;1.08;0.90;;;;;;;25.10;49.31;97783.72;2085336;28;20139;-54
2023/08/06 03:59:43;;;;;;;1.33;0.65;;;;;;;25.09;49.06;97782.91;2085196;28;20048;-53
2023/08/06 04:00:45;;;;;;;2.45;0.95;;;;;;;25.11;50.00;97785.38;2085863;28;20170;-53
2023/08/06 04:01:45;;;;;;;2.30;1.08;;;;;;;25.09;48.80;97785.63;2086972;28;20052;-48
2023/08/06 04:02:47;;;;;;;1.88;0.90;;;;;;;25.10;49.81;97784.56;2086294;28;20128;-50
2023/08/06 04:03:49;;;;;;;1.65;0.70;;;;;;;25.10;49.66;97784.56;2086498;28;20045;-52
2023/08/06 04:04:53;;;;;;;0.40;0.30;;;;;;;25.09;48.91;97785.63;2088331;28;20047;-51
2023/08/06 04:05:54;;;;;;;2.65;0.70;;;;;;;25.07;49.31;97782.34;2086552;28;20048;-50
2023/08/06 04:06:56;;;;;;;2.95;0.40;;;;;;;25.07;49.07;97785.06;2088101;28;20448;-49
2023/08/06 04:07:57;;;;;;;1.95;0.52;;;;;;;25.05;49.58;97781.81;2089011;28;20589;-50
2023/08/06 04:08:59;;;;;;;1.63;0.65;;;;;;;25.06;49.08;97780.72;2090547;28;20045;-51
2023/08/06 04:10:03;;;;;;;0.75;0.45;;;;;;;25.07;49.49;97773.41;2085565;28;20436;-50
2023/08/06 04:11:04;;;;;;;2.15;0.60;;;;;;;25.08;49.61;97775.06;2088455;28;20059;-50
2023/08/06 04:12:06;;;;;;;3.63;0.68;;;;;;;25.07;49.34;97774.22;2087183;28;20533;-49
2023/08/06 04:13:08;;;;;;;1.10;0.55;;;;;;;25.07;48.94;97782.34;2086702;28;20045;-50
2023/08/06 04:14:09;;;;;;;1.20;0.60;;;;;;;25.05;49.35;97773.69;2086092;28;20087;-47
2023/08/06 04:15:11;;;;;;;1.67;0.50;;;;;;;25.04;49.18;97774.75;2088576;28;20054;-49
2023/08/06 04:16:13;;;;;;;2.30;0.90;;;;;;;25.04;49.28;97780.19;2085797;28;20143;-50
2023/08/06 04:17:13;;;;;;;0.90;0.45;;;;;;;25.03;49.48;97775.84;2085576;28;20076;-51
2023/08/06 04:18:15;;;;;;;0.52;0.30;;;;;;;25.03;49.05;97778.56;2089475;28;20319;-51
2023/08/06 04:19:16;;;;;;;2.38;0.82;;;;;;;25.04;49.65;97780.19;2089820;28;20063;-51
2023/08/06 04:20:18;;;;;;;0.85;0.60;;;;;;;25.03;49.46;97778.56;2088527;28;20048;-52
2023/08/06 04:21:19;;;;;;;1.00;0.80;;;;;;;25.02;49.13;97782.34;2083934;28;20048;-51
2023/08/06 04:22:22;;;;;;;0.80;0.40;;;;;;;25.04;49.15;97780.19;2086543;28;20084;-49
2023/08/06 04:23:23;;;;;;;1.40;0.60;;;;;;;25.03;49.34;97780.47;2085806;28;20518;-50
2023/08/06 04:24:25;;;;;;;1.50;0.90;;;;;;;25.01;49.56;97774.47;2086323;28;20068;-50
2023/08/06 04:25:27;;;;;;;1.75;0.70;;;;;;;25.02;49.01;97773.38;2081637;28;20053;-51
2023/08/06 04:26:29;;;;;;;2.95;0.88;;;;;;;25.02;49.57;97771.50;2086562;28;20510;-51
2023/08/06 04:27:29;;;;;;;1.73;0.63;;;;;;;25.02;49.35;97779.66;2087306;28;20076;-50
2023/08/06 04:28:31;;;;;;;0.40;0.40;;;;;;;25.02;49.51;97773.38;2086646;28;20057;-49
2023/08/06 04:29:32;;;;;;;1.33;0.45;;;;;;;25.01;49.67;97774.47;2086671;28;20144;-49
2023/08/06 04:30:34;;;;;;;1.05;0.50;;;;;;;25.02;49.52;97781.53;2086481;28;20049;-50
2023/08/06 04:31:35;;;;;;;3.65;0.60;;;;;;;25.04;49.26;97779.38;2086638;28;20126;-53
2023/08/06 04:32:37;;;;;;;2.95;0.68;;;;;;;25.04;49.25;97774.75;2085233;28;20460;-50
2023/08/06 04:33:38;;;;;;;0.88;0.60;;;;;;;25.05;49.52;97776.41;2077067;28;20048;-53
2023/08/06 04:34:40;;;;;;;1.05;0.52;;;;;;;25.05;49.32;97779.13;2079455;28;20140;-52
2023/08/06 04:35:41;;;;;;;2.75;0.68;;;;;;;25.03;49.65;97778.56;2077483;28;20411;-53
2023/08/06 04:36:43;;;;;;;0.88;0.43;;;;;;;25.02;49.20;97773.38;2078396;28;20132;-51
2023/08/06 04:37:43;;;;;;;2.42;0.65;;;;;;;25.02;49.19;97774.22;2075184;28;20248;-49
2023/08/06 04:38:47;;;;;;;2.47;0.63;;;;;;;25.03;49.24;97772.31;2076789;28;20142;-48
2023/08/06 04:39:48;;;;;;;4.18;0.40;;;;;;;25.03;49.38;97766.91;2077934;28;20419;-50
2023/08/06 04:40:51;;;;;;;4.07;0.77;;;;;;;24.99;49.69;97763.91;2078815;28;20053;-52
2023/08/06 04:41:52;;;;;;;1.50;0.60;;;;;;;24.99;49.40;97766.63;2077973;28;20065;-53
2023/08/06 04:42:53;;;;;;;2.80;0.68;;;;;;;24.98;49.26;97765.78;2076701;28;20045;-52
2023/08/06 04:43:55;;;;;;;6.88;0.70;;;;;;;24.97;49.30;97769.59;2077565;28;20056;-50
2023/08/06 04:44:56;;;;;;;2.50;0.65;;;;;;;24.96;49.81;97772.53;2077529;28;20080;-51
2023/08/06 04:45:58;;;;;;;1.73;0.60;;;;;;;24.98;49.21;97771.19;2083908;28;20764;-51
2023/08/06 04:46:59;;;;;;;0.75;0.40;;;;;;;24.97;49.61;97768.78;2088163;28;20048;-49
2023/08/06 04:48:01;;;;;;;2.42;0.80;;;;;;;25.01;49.74;97774.47;2087060;28;20155;-51
2023/08/06 04:49:01;;;;;;;2.92;0.63;;;;;;;25.01;49.99;97777.19;2085749;28;21351;-50
2023/08/06 04:50:03;;;;;;;0.80;0.50;;;;;;;25.03;49.03;97775.84;2088049;28;20174;-51
2023/08/06 04:51:04;;;;;;;1.83;0.60;;;;;;;25.04;49.32;97780.19;2087832;28;20455;-54
2023/08/06 04:52:07;;;;;;;1.20;0.57;;;;;;;25.03;49.14;97777.75;2086901;28;20048;-50
2023/08/06 04:53:07;;;;;;;0.85;0.45;;;;;;;25.03;48.73;97780.47;2084602;28;20052;-52